createdAt,value
2022-10-17T00:01:35.329Z,12.94
2022-10-17T00:04:04.650Z,12.90
2022-10-17T00:06:32.477Z,12.85
2022-10-17T00:09:00.320Z,12.81
2022-10-17T00:11:28.207Z,12.76
2022-10-17T00:13:57.251Z,12.72
2022-10-17T00:16:27.625Z,12.69
2022-10-17T00:18:56.241Z,12.68
2022-10-17T00:21:26.570Z,12.64
2022-10-17T00:23:55.194Z,12.63
2022-10-17T00:26:23.660Z,12.61
2022-10-17T00:28:53.321Z,12.59
2022-10-17T00:31:23.139Z,12.55
2022-10-17T00:33:51.476Z,12.53
2022-10-17T00:36:21.810Z,12.49
2022-10-17T00:38:53.358Z,12.47
2022-10-17T00:41:23.504Z,12.42
2022-10-17T00:43:58.086Z,12.39
2022-10-17T00:46:28.053Z,12.36
2022-10-17T00:48:58.264Z,12.33
2022-10-17T00:51:32.286Z,12.29
2022-10-17T00:54:03.842Z,12.26
2022-10-17T00:56:32.914Z,12.24
2022-10-17T00:59:01.010Z,12.22
2022-10-17T01:01:28.955Z,12.21
2022-10-17T01:03:59.677Z,12.19
2022-10-17T01:06:27.687Z,12.21
2022-10-17T01:08:55.846Z,12.21
2022-10-17T01:11:34.677Z,12.22
2022-10-17T01:14:10.345Z,12.21
2022-10-17T01:16:49.018Z,12.20
2022-10-17T01:19:36.843Z,12.17
2022-10-17T01:22:10.821Z,12.12
2022-10-17T01:25:08.727Z,12.08
2022-10-17T01:27:50.405Z,12.05
2022-10-17T01:30:37.884Z,12.02
2022-10-17T01:33:14.591Z,11.98
2022-10-17T01:35:48.091Z,11.96
2022-10-17T01:38:22.896Z,11.92
2022-10-17T01:40:57.345Z,11.88
2022-10-17T01:43:31.263Z,11.87
2022-10-17T01:46:02.808Z,11.86
2022-10-17T01:49:01.401Z,11.85
2022-10-17T01:51:34.642Z,11.86
2022-10-17T01:54:08.041Z,11.87
2022-10-17T01:56:37.580Z,11.87
2022-10-17T01:59:11.953Z,11.84
2022-10-17T02:01:42.515Z,11.81
2022-10-17T02:04:12.873Z,11.80
2022-10-17T02:06:40.913Z,11.80
2022-10-17T02:09:19.873Z,11.80
2022-10-17T02:12:05.015Z,11.81
2022-10-17T02:14:45.377Z,11.82
2022-10-17T02:17:22.352Z,11.84
2022-10-17T02:20:00.022Z,11.86
2022-10-17T02:22:38.916Z,11.89
2022-10-17T02:25:15.634Z,11.89
2022-10-17T02:27:49.855Z,11.92
2022-10-17T02:30:30.389Z,11.91
2022-10-17T02:33:02.375Z,11.89
2022-10-17T02:35:35.471Z,11.87
2022-10-17T02:38:09.427Z,11.85
2022-10-17T02:40:38.843Z,11.82
2022-10-17T02:43:06.674Z,11.81
2022-10-17T02:45:39.199Z,11.80
2022-10-17T02:48:12.100Z,11.78
2022-10-17T02:50:53.358Z,11.77
2022-10-17T02:53:29.164Z,11.75
2022-10-17T02:56:01.220Z,11.74
2022-10-17T02:58:36.337Z,11.73
2022-10-17T03:01:06.122Z,11.82
2022-10-17T03:03:34.314Z,11.80
2022-10-17T03:06:04.672Z,11.79
2022-10-17T03:08:32.625Z,11.76
2022-10-17T03:11:01.408Z,11.74
2022-10-17T03:13:31.752Z,11.72
2022-10-17T03:16:01.368Z,11.67
2022-10-17T03:18:29.247Z,11.66
2022-10-17T03:21:00.991Z,11.63
2022-10-17T03:23:30.737Z,11.61
2022-10-17T03:25:58.931Z,11.60
2022-10-17T03:28:28.026Z,11.59
2022-10-17T03:30:55.987Z,11.58
2022-10-17T03:33:23.906Z,11.59
2022-10-17T03:35:51.905Z,11.58
2022-10-17T03:38:19.802Z,11.57
2022-10-17T03:40:56.418Z,11.55
2022-10-17T03:43:24.408Z,11.55
2022-10-17T03:45:52.160Z,11.51
2022-10-17T03:48:22.287Z,11.49
2022-10-17T03:50:50.541Z,11.48
2022-10-17T03:53:18.566Z,11.46
2022-10-17T03:55:46.567Z,11.44
2022-10-17T03:58:15.771Z,11.43
2022-10-17T04:00:45.424Z,11.42
2022-10-17T04:03:17.113Z,11.40
2022-10-17T04:05:45.364Z,11.38
2022-10-17T04:08:13.243Z,11.37
2022-10-17T04:11:24.064Z,11.34
2022-10-17T04:13:56.360Z,11.34
2022-10-17T04:16:27.467Z,11.32
2022-10-17T04:19:05.071Z,11.31
2022-10-17T04:21:41.207Z,11.29
2022-10-17T04:24:12.119Z,11.26
2022-10-17T04:26:51.910Z,11.24
2022-10-17T04:29:22.804Z,11.24
2022-10-17T04:31:53.001Z,11.23
2022-10-17T04:34:26.385Z,11.22
2022-10-17T04:37:19.785Z,11.22
2022-10-17T04:39:50.023Z,11.24
2022-10-17T04:42:18.001Z,11.28
2022-10-17T04:44:48.212Z,11.34
2022-10-17T04:47:18.702Z,11.42
2022-10-17T04:49:47.546Z,11.48
2022-10-17T04:52:17.094Z,11.58
2022-10-17T04:54:47.138Z,11.67
2022-10-17T04:57:15.402Z,11.70
2022-10-17T04:59:58.647Z,11.72
2022-10-17T05:02:49.046Z,11.75
2022-10-17T05:05:18.597Z,11.74
2022-10-17T05:07:49.370Z,11.75
2022-10-17T05:10:24.115Z,11.77
2022-10-17T05:12:54.349Z,11.78
2022-10-17T05:15:26.541Z,11.80
2022-10-17T05:17:56.933Z,11.80
2022-10-17T05:20:26.421Z,11.80
2022-10-17T05:22:55.197Z,11.78
2022-10-17T05:25:24.308Z,11.78
2022-10-17T05:27:54.923Z,11.76
2022-10-17T05:30:23.232Z,11.73
2022-10-17T05:32:56.978Z,11.71
2022-10-17T05:35:24.957Z,11.70
2022-10-17T05:37:53.806Z,11.71
2022-10-17T05:40:23.574Z,11.71
2022-10-17T05:42:53.999Z,11.71
2022-10-17T05:45:24.716Z,11.74
2022-10-17T05:47:52.996Z,11.77
2022-10-17T05:50:24.314Z,11.78
2022-10-17T05:53:09.603Z,11.81
2022-10-17T05:55:42.393Z,11.84
2022-10-17T05:58:17.667Z,11.86
2022-10-17T06:00:59.895Z,11.86
2022-10-17T06:03:28.864Z,11.89
2022-10-17T06:06:03.818Z,11.91
2022-10-17T06:08:31.748Z,11.95
2022-10-17T06:11:01.700Z,12.01
2022-10-17T06:13:32.075Z,12.09
2022-10-17T06:16:03.901Z,12.17
2022-10-17T06:18:31.910Z,12.29
2022-10-17T06:21:05.480Z,12.39
2022-10-17T06:23:34.569Z,12.47
2022-10-17T06:26:10.866Z,12.51
2022-10-17T06:28:39.182Z,12.53
2022-10-17T06:31:08.329Z,12.57
2022-10-17T06:33:37.445Z,12.61
2022-10-17T06:36:09.595Z,12.64
2022-10-17T06:38:37.674Z,12.67
2022-10-17T06:41:13.785Z,12.71
2022-10-17T06:43:45.610Z,12.75
2022-10-17T06:46:45.727Z,12.82
2022-10-17T06:49:16.945Z,12.92
2022-10-17T06:52:12.879Z,13.02
2022-10-17T06:54:52.992Z,13.11
2022-10-17T06:57:35.402Z,13.19
2022-10-17T07:00:23.311Z,13.31
2022-10-17T07:02:55.016Z,13.41
2022-10-17T07:05:22.923Z,13.50
2022-10-17T07:07:52.194Z,13.59
2022-10-17T07:10:20.308Z,13.68
2022-10-17T07:12:48.181Z,13.78
2022-10-17T07:15:16.301Z,13.89
2022-10-17T07:17:44.177Z,13.97
2022-10-17T07:20:12.603Z,14.06
2022-10-17T07:22:40.516Z,14.16
2022-10-17T07:25:16.812Z,14.27
2022-10-17T07:27:54.025Z,14.37
2022-10-17T08:09:30.572Z,16.58
2022-10-17T08:12:00.332Z,16.61
2022-10-17T08:14:28.252Z,16.66
2022-10-17T08:16:56.280Z,16.70
2022-10-17T08:19:24.382Z,16.74
2022-10-17T08:21:52.611Z,16.78
2022-10-17T08:24:20.487Z,16.82
2022-10-17T08:26:49.605Z,16.86
2022-10-17T08:29:21.384Z,16.92
2022-10-17T08:31:52.373Z,16.99
2022-10-17T08:34:24.389Z,17.07
2022-10-17T08:36:52.159Z,17.17
2022-10-17T08:39:20.190Z,17.24
2022-10-17T08:41:59.943Z,17.32
2022-10-17T08:44:40.943Z,17.39
2022-10-17T08:47:15.494Z,17.45
2022-10-17T08:49:51.334Z,17.50
2022-10-17T08:52:26.482Z,17.52
2022-10-17T08:54:54.558Z,17.55
2022-10-17T08:57:22.554Z,17.59
2022-10-17T08:59:54.617Z,17.63
2022-10-17T09:02:35.567Z,17.68
2022-10-17T09:05:31.478Z,17.72
2022-10-17T09:08:10.201Z,17.76
2022-10-17T09:10:49.978Z,17.78
2022-10-17T09:13:38.124Z,17.81
2022-10-17T09:16:20.598Z,17.85
2022-10-17T09:18:59.867Z,17.89
2022-10-17T09:21:37.872Z,17.93
2022-10-17T09:24:15.801Z,17.98
2022-10-17T09:26:46.726Z,18.00
2022-10-17T09:29:21.261Z,18.06
2022-10-17T09:31:59.108Z,18.11
2022-10-17T09:34:30.112Z,18.13
2022-10-17T09:37:00.050Z,18.19
2022-10-17T09:39:31.827Z,18.25
2022-10-17T09:42:01.832Z,18.32
2022-10-17T09:44:33.033Z,18.41
2022-10-17T09:47:16.372Z,18.52
2022-10-17T09:49:46.113Z,18.60
2022-10-17T09:52:17.497Z,18.70
2022-10-17T09:54:47.856Z,18.80
2022-10-17T09:57:17.487Z,18.89
2022-10-17T09:59:48.406Z,19.01
2022-10-17T10:02:20.777Z,19.13
2022-10-17T10:05:05.041Z,19.20
2022-10-17T10:07:36.929Z,19.27
2022-10-17T10:10:07.446Z,19.31
2022-10-17T10:12:38.882Z,19.38
2022-10-17T10:15:35.979Z,19.44
2022-10-17T10:18:25.505Z,19.48
2022-10-17T10:21:06.324Z,19.54
2022-10-17T10:23:34.793Z,19.62
2022-10-17T10:26:04.829Z,19.67
2022-10-17T10:28:35.611Z,19.74
2022-10-17T10:31:06.063Z,19.85
2022-10-17T10:33:41.443Z,19.97
2022-10-17T10:36:10.032Z,20.10
2022-10-17T10:38:42.476Z,20.24
2022-10-17T10:41:12.615Z,20.35
2022-10-17T10:43:44.226Z,20.47
2022-10-17T10:46:19.685Z,20.58
2022-10-17T10:48:54.937Z,20.69
2022-10-17T10:51:28.851Z,20.79
2022-10-17T10:54:03.292Z,20.92
2022-10-17T10:56:36.484Z,21.04
2022-10-17T10:59:11.361Z,21.15
2022-10-17T11:01:45.464Z,21.28
2022-10-17T11:04:27.351Z,21.40
2022-10-17T11:07:03.167Z,21.48
2022-10-17T11:09:43.694Z,21.56
2022-10-17T11:12:18.028Z,21.58
2022-10-17T11:14:50.643Z,21.73
2022-10-17T11:17:28.952Z,21.92
2022-10-17T11:20:07.923Z,22.09
2022-10-17T11:22:42.370Z,22.23
2022-10-17T11:25:23.478Z,22.32
2022-10-17T11:27:51.556Z,22.33
2022-10-17T11:30:19.679Z,22.32
2022-10-17T11:32:53.782Z,22.36
2022-10-17T11:35:26.502Z,22.39
2022-10-17T11:38:00.475Z,22.43
2022-10-17T11:40:32.174Z,22.51
2022-10-17T11:43:03.296Z,22.60
2022-10-17T11:45:37.878Z,22.71
2022-10-17T11:48:13.197Z,22.80
2022-10-17T11:53:47.693Z,22.88
2022-10-17T11:56:21.386Z,22.95
2022-10-17T11:58:58.189Z,23.03
2022-10-17T12:01:33.830Z,23.08
2022-10-17T12:04:23.252Z,23.11
2022-10-17T12:07:10.825Z,23.06
2022-10-17T12:09:46.325Z,22.95
2022-10-17T12:12:27.037Z,22.80
2022-10-17T12:14:55.792Z,22.74
2022-10-17T12:17:32.970Z,22.77
2022-10-17T12:20:30.577Z,22.86
2022-10-17T12:23:18.265Z,22.96
2022-10-17T12:25:51.481Z,23.07
2022-10-17T12:28:28.496Z,23.14
2022-10-17T12:31:00.281Z,23.20
2022-10-17T12:33:34.898Z,23.23
2022-10-17T12:36:46.104Z,23.21
2022-10-17T12:39:46.464Z,23.22
2022-10-17T12:42:51.920Z,23.17
2022-10-17T12:45:47.294Z,23.16
2022-10-17T12:48:35.374Z,23.23
2022-10-17T12:53:59.578Z,23.32
2022-10-17T12:56:37.814Z,23.32
2022-10-17T12:59:16.454Z,23.41
2022-10-17T13:01:48.088Z,23.50
2022-10-17T13:04:16.908Z,23.58
2022-10-17T13:06:48.326Z,23.62
2022-10-17T13:09:27.499Z,23.63
2022-10-17T13:11:58.023Z,23.67
2022-10-17T13:14:28.523Z,23.70
2022-10-17T13:16:58.506Z,23.71
2022-10-17T13:19:30.009Z,23.74
2022-10-17T13:22:06.293Z,23.71
2022-10-17T13:24:36.683Z,23.62
2022-10-17T13:27:06.179Z,23.50
2022-10-17T13:29:35.619Z,23.40
2022-10-17T13:32:05.812Z,23.38
2022-10-17T13:34:35.221Z,23.41
2022-10-17T13:37:06.137Z,23.41
2022-10-17T13:39:52.835Z,23.42
2022-10-17T13:42:26.201Z,23.47
2022-10-17T13:44:56.756Z,23.50
2022-10-17T13:47:26.536Z,23.54
2022-10-17T13:49:55.869Z,23.58
2022-10-17T13:52:27.979Z,23.53
2022-10-17T13:55:06.445Z,23.42
2022-10-17T13:57:34.417Z,23.33
2022-10-17T14:00:12.540Z,23.25
2022-10-17T14:02:42.512Z,23.19
2022-10-17T14:05:18.984Z,23.13
2022-10-17T14:10:42.263Z,23.04
2022-10-17T14:13:22.011Z,22.97
2022-10-17T14:15:52.161Z,22.92
2022-10-17T14:18:23.007Z,22.87
2022-10-17T14:23:42.292Z,22.83
2022-10-17T14:26:13.703Z,22.81
2022-10-17T14:28:42.936Z,22.80
2022-10-17T14:31:20.845Z,22.77
2022-10-17T14:33:51.099Z,22.73
2022-10-17T14:36:20.465Z,22.70
2022-10-17T14:38:50.961Z,22.64
2022-10-17T14:44:23.517Z,22.53
2022-10-17T14:46:57.773Z,22.52
2022-10-17T14:49:32.592Z,22.49
2022-10-17T14:52:30.064Z,22.48
2022-10-17T14:54:59.431Z,22.49
2022-10-17T14:57:35.862Z,22.50
2022-10-17T15:00:04.303Z,22.49
2022-10-17T15:02:33.685Z,22.47
2022-10-17T15:05:01.653Z,22.45
2022-10-17T15:07:29.493Z,22.44
2022-10-17T15:09:57.302Z,22.41
2022-10-17T15:12:26.491Z,22.38
2022-10-17T15:14:55.145Z,22.34
2022-10-17T15:17:27.196Z,22.30
2022-10-17T15:19:56.967Z,22.24
2022-10-17T15:22:25.377Z,22.19
2022-10-17T15:24:53.260Z,22.16
2022-10-17T15:27:23.021Z,22.10
2022-10-17T15:29:52.826Z,22.04
2022-10-17T15:32:20.711Z,21.97
2022-10-17T15:34:48.600Z,21.91
2022-10-17T15:37:21.939Z,21.87
2022-10-17T15:39:53.521Z,21.82
2022-10-17T15:42:22.778Z,21.77
2022-10-17T15:44:50.781Z,21.74
2022-10-17T15:47:25.508Z,21.69
2022-10-17T15:50:19.154Z,21.61
2022-10-17T15:52:50.836Z,21.56
2022-10-17T15:55:19.648Z,21.49
2022-10-17T15:57:49.111Z,21.43
2022-10-17T16:00:19.423Z,21.37
2022-10-17T16:02:47.724Z,21.33
2022-10-17T16:05:17.995Z,21.27
2022-10-17T16:07:46.802Z,21.21
2022-10-17T16:10:17.109Z,21.15
2022-10-17T16:12:45.432Z,21.10
2022-10-17T16:15:15.497Z,21.07
2022-10-17T16:17:43.841Z,21.03
2022-10-17T16:20:13.498Z,21.00
2022-10-17T16:22:42.755Z,20.96
2022-10-17T16:25:20.459Z,20.92
2022-10-17T16:27:50.937Z,20.88
2022-10-17T16:30:19.642Z,20.84
2022-10-17T16:32:48.137Z,20.79
2022-10-17T16:35:19.458Z,20.73
2022-10-17T16:37:47.560Z,20.69
2022-10-17T16:40:16.699Z,20.64
2022-10-17T16:42:46.261Z,20.59
2022-10-17T16:45:20.731Z,20.54
2022-10-17T16:47:49.727Z,20.49
2022-10-17T16:50:18.464Z,20.42
2022-10-17T16:52:46.418Z,20.36
2022-10-17T16:55:14.243Z,20.29
2022-10-17T16:57:45.972Z,20.23
2022-10-17T17:00:16.147Z,20.18
2022-10-17T17:02:44.364Z,20.12
2022-10-17T17:05:12.748Z,20.08
2022-10-17T17:07:40.728Z,20.04
2022-10-17T17:10:09.454Z,20.00
2022-10-17T17:12:37.851Z,19.95
2022-10-17T17:15:07.590Z,19.92
2022-10-17T17:17:54.880Z,19.86
2022-10-17T17:20:23.715Z,19.82
2022-10-17T17:22:52.275Z,19.80
2022-10-17T17:25:20.190Z,19.76
2022-10-17T17:27:48.210Z,19.74
2022-10-17T17:30:17.594Z,19.70
2022-10-17T17:32:45.491Z,19.64
2022-10-17T17:35:13.377Z,19.56
2022-10-17T17:37:41.273Z,19.52
2022-10-17T17:40:10.023Z,19.50
2022-10-17T17:42:37.908Z,19.47
2022-10-17T17:45:06.711Z,19.44
2022-10-17T17:47:35.960Z,19.42
2022-10-17T17:50:04.240Z,19.40
2022-10-17T17:52:32.302Z,19.39
2022-10-17T17:55:00.283Z,19.36
2022-10-17T17:57:30.314Z,19.33
2022-10-17T17:59:58.408Z,19.29
2022-10-17T18:02:26.490Z,19.23
2022-10-17T18:04:55.762Z,19.18
2022-10-17T18:07:24.668Z,19.08
2022-10-17T18:09:52.482Z,18.98
2022-10-17T18:12:20.465Z,18.87
2022-10-17T18:14:48.843Z,18.76
2022-10-17T18:17:16.731Z,18.63
2022-10-17T18:19:44.560Z,18.52
2022-10-17T18:22:14.038Z,18.42
2022-10-17T18:24:42.609Z,18.32
2022-10-17T18:27:12.680Z,18.25
2022-10-17T18:29:40.530Z,18.18
2022-10-17T18:32:08.565Z,18.08
2022-10-17T18:34:36.463Z,18.03
2022-10-17T18:37:04.337Z,17.95
2022-10-17T18:39:33.553Z,17.89
2022-10-17T18:42:01.413Z,17.86
2022-10-17T18:44:29.425Z,17.81
2022-10-17T18:47:02.933Z,17.79
2022-10-17T18:49:32.544Z,17.74
2022-10-17T18:52:00.561Z,17.69
2022-10-17T18:54:29.598Z,17.67
2022-10-17T18:56:58.818Z,17.64
2022-10-17T18:59:26.656Z,17.60
2022-10-17T19:01:54.560Z,17.56
2022-10-17T19:04:22.703Z,17.52
2022-10-17T19:06:50.473Z,17.50
2022-10-17T19:09:18.887Z,17.48
2022-10-17T19:11:46.929Z,17.44
2022-10-17T19:14:16.254Z,17.42
2022-10-17T19:16:45.799Z,17.38
2022-10-17T19:19:15.996Z,17.34
2022-10-17T19:21:44.102Z,17.31
2022-10-17T19:24:13.899Z,17.28
2022-10-17T19:26:43.670Z,17.24
2022-10-17T19:29:14.248Z,17.20
2022-10-17T19:31:44.144Z,17.16
2022-10-17T19:34:13.146Z,17.12
2022-10-17T19:36:41.425Z,17.08
2022-10-17T19:39:16.324Z,17.04
2022-10-17T19:41:45.319Z,17.03
2022-10-17T19:44:13.912Z,16.99
2022-10-17T19:46:44.345Z,16.97
2022-10-17T19:49:12.799Z,16.94
2022-10-17T19:51:40.908Z,16.92
2022-10-17T19:54:08.708Z,16.89
2022-10-17T19:56:38.067Z,16.88
2022-10-17T19:59:06.442Z,16.85
2022-10-17T20:01:38.858Z,16.83
2022-10-17T20:04:08.752Z,16.80
2022-10-17T20:06:36.710Z,16.77
2022-10-17T20:09:05.193Z,16.75
2022-10-17T20:11:33.343Z,16.73
2022-10-17T20:14:02.063Z,16.72
2022-10-17T20:16:32.167Z,16.69
2022-10-17T20:19:06.627Z,16.69
2022-10-17T20:21:36.652Z,16.68
2022-10-17T20:24:06.868Z,16.66
2022-10-17T20:26:38.710Z,16.69
2022-10-17T20:29:10.900Z,16.72
2022-10-17T20:31:40.218Z,16.75
2022-10-17T20:34:08.208Z,16.75
2022-10-17T20:36:37.762Z,16.77
2022-10-17T20:39:07.324Z,16.77
2022-10-17T20:41:35.712Z,16.76
2022-10-17T20:44:03.798Z,16.75
2022-10-17T20:46:44.760Z,16.72
2022-10-17T20:49:16.538Z,16.69
2022-10-17T20:51:46.066Z,16.65
2022-10-17T20:54:14.074Z,16.64
2022-10-17T20:56:42.064Z,16.64
2022-10-17T20:59:13.111Z,16.61
2022-10-17T21:01:41.163Z,16.59
2022-10-17T21:04:43.983Z,16.58
2022-10-17T21:06:59.228Z,16.56
2022-10-17T21:09:27.287Z,16.55
2022-10-17T21:11:55.967Z,16.53
2022-10-17T21:14:25.604Z,16.52
2022-10-17T21:16:53.712Z,16.49
2022-10-17T21:19:22.676Z,16.47
2022-10-17T21:21:51.398Z,16.45
2022-10-17T21:24:20.888Z,16.43
2022-10-17T21:26:55.363Z,16.41
2022-10-17T21:29:24.056Z,16.39
2022-10-17T21:31:52.454Z,16.36
2022-10-17T21:34:23.800Z,16.35
2022-10-17T21:36:52.356Z,16.32
2022-10-17T21:39:24.176Z,16.32
2022-10-17T21:41:53.083Z,16.29
2022-10-17T21:44:23.543Z,16.29
2022-10-17T21:46:52.382Z,16.28
2022-10-17T21:49:22.553Z,16.27
2022-10-17T21:51:51.336Z,16.25
2022-10-17T21:54:22.993Z,16.24
2022-10-17T21:56:51.635Z,16.23
2022-10-17T21:59:19.408Z,16.23
2022-10-17T22:01:47.616Z,16.25
2022-10-17T22:06:40.797Z,16.25
2022-10-17T22:09:12.808Z,16.32
2022-10-17T22:11:40.846Z,16.32
2022-10-17T22:14:12.755Z,16.32
2022-10-17T22:16:42.442Z,16.31
2022-10-17T22:19:11.943Z,16.32
2022-10-17T22:21:41.294Z,16.35
2022-10-17T22:24:11.745Z,16.36
2022-10-17T22:26:40.386Z,16.36
2022-10-17T22:29:09.345Z,16.37
2022-10-17T22:31:38.052Z,16.41
2022-10-17T22:34:08.083Z,16.43
2022-10-17T22:36:36.257Z,16.46
2022-10-17T22:39:06.223Z,16.49
2022-10-17T22:41:34.125Z,16.54
2022-10-17T22:44:02.258Z,16.58
2022-10-17T22:46:30.132Z,16.63
2022-10-17T22:48:58.018Z,16.68
2022-10-17T22:51:26.079Z,16.73
2022-10-17T22:53:53.854Z,16.75
2022-10-17T22:56:24.221Z,16.77
2022-10-17T22:58:53.096Z,16.78
2022-10-17T23:01:22.987Z,16.81
2022-10-17T23:03:51.517Z,16.84
2022-10-17T23:06:20.041Z,16.87
2022-10-17T23:08:48.507Z,16.87
2022-10-17T23:11:17.048Z,16.87
2022-10-17T23:13:46.325Z,16.87
2022-10-17T23:16:14.223Z,16.84
2022-10-17T23:18:43.640Z,16.82
2022-10-17T23:21:11.828Z,16.81
2022-10-17T23:23:39.852Z,16.77
2022-10-17T23:26:10.280Z,16.75
2022-10-17T23:28:38.412Z,16.72
2022-10-17T23:31:16.574Z,16.71
2022-10-17T23:33:46.130Z,16.69
2022-10-17T23:36:15.258Z,16.67
2022-10-17T23:38:44.508Z,16.65
2022-10-17T23:41:12.881Z,16.63
2022-10-17T23:43:41.535Z,16.63
2022-10-17T23:46:11.723Z,16.62
2022-10-17T23:48:41.693Z,16.62
2022-10-17T23:51:10.552Z,16.62
2022-10-17T23:53:38.720Z,16.61
2022-10-17T23:56:08.026Z,16.59
2022-10-17T23:58:35.883Z,16.60
